aviador You're here:

ETAD Decoded Metar

SPANGDAHLEM in GERMANY
Report Time2018-06-18 18:56:00
UTC Time2018-06-18 19:16:47
Flight Rules vfr VFR
Wind190° at 07 kt
W.Decomp.*RWY 23: 5.3 kt HW 4.6 kt LCW
W.Rank190° ranks 14
Current wind is below 190° avg. (7.6)
Visibility9999 m
Phenomena:N/A
Clouds:Few 027 Hf
Scattered 055 Hf
Expected CloudBase > 1,200 ft AGL from Temp-Dew spread
CeilingNone
Temp18°C (ISA +5)
Dew Point15°C (83% RH)
AAT17.1°C
QNH1022 hPa
Density Alt1,759 ft
Elevation1,198 ft
Report Wrong Elevation
Raw Report
ETAD 181856Z AUTO 19007KT 9999 FEW027 SCT055 18/15 A3018 RMK AO2
SLP205 T01840149 $=

Extra information for ETAD:More info

Metar Taf Metar & Taf Last 4 Metars F.Rules Stats Wind Profile Meteogram Temp Stats Airport Information Weather charts Add Link Nearby VenuesMetar ALERT Operation Metar Decoded Social comments